createdAt,value
2022-10-11T00:02:10.909Z,29.30
2022-10-11T00:04:37.866Z,30.17
2022-10-11T00:07:04.728Z,30.35
2022-10-11T00:09:31.582Z,31.17
2022-10-11T00:11:58.364Z,30.33
2022-10-11T00:14:27.187Z,27.92
2022-10-11T00:16:55.478Z,29.52
2022-10-11T00:19:22.496Z,29.00
2022-10-11T00:21:49.271Z,30.10
2022-10-11T00:24:16.831Z,30.00
2022-10-11T00:26:46.722Z,29.60
2022-10-11T00:29:14.205Z,30.70
2022-10-11T00:31:40.999Z,31.23
2022-10-11T00:34:08.705Z,30.55
2022-10-11T00:36:35.680Z,32.10
2022-10-11T00:39:02.499Z,31.52
2022-10-11T00:41:29.364Z,31.17
2022-10-11T00:44:13.032Z,30.60
2022-10-11T00:46:42.300Z,31.35
2022-10-11T00:49:21.651Z,31.45
2022-10-11T00:51:53.459Z,29.77
2022-10-11T00:56:56.469Z,28.85
2022-10-11T00:59:31.133Z,29.05
2022-10-11T01:01:58.136Z,30.05
2022-10-11T01:04:24.954Z,31.05
2022-10-11T01:06:53.251Z,32.17
2022-10-11T01:09:21.162Z,32.75
2022-10-11T01:11:52.013Z,30.75
2022-10-11T01:14:56.481Z,31.27
2022-10-11T01:17:38.160Z,32.03
2022-10-11T01:20:26.530Z,33.72
2022-10-11T01:23:04.281Z,31.73
2022-10-11T01:25:56.426Z,31.45
2022-10-11T01:31:07.767Z,29.73
2022-10-11T01:33:45.464Z,32.30
2022-10-11T01:36:38.022Z,34.72
2022-10-11T01:39:25.238Z,35.47
2022-10-11T01:41:56.245Z,33.25
2022-10-11T01:44:25.264Z,33.50
2022-10-11T01:46:53.141Z,32.45
2022-10-11T01:49:20.417Z,35.03
2022-10-11T01:51:52.140Z,35.13
2022-10-11T01:54:49.798Z,34.83
2022-10-11T01:57:51.737Z,37.80
2022-10-11T02:00:20.170Z,34.08
2022-10-11T02:03:09.258Z,34.25
2022-10-11T02:06:09.932Z,34.22
2022-10-11T02:08:50.026Z,35.08
2022-10-11T02:11:31.603Z,31.70
2022-10-11T02:14:15.934Z,35.47
2022-10-11T02:17:04.038Z,34.63
2022-10-11T02:19:37.144Z,31.65
2022-10-11T02:22:08.196Z,34.20
2022-10-11T02:24:37.739Z,34.20
2022-10-11T02:27:06.192Z,33.15
2022-10-11T02:29:37.905Z,33.35
2022-10-11T02:32:06.792Z,32.80
2022-10-11T02:34:44.239Z,33.50
2022-10-11T02:37:29.024Z,32.40
2022-10-11T02:40:04.791Z,30.40
2022-10-11T02:42:44.615Z,32.97
2022-10-11T02:45:17.521Z,33.05
2022-10-11T02:47:45.144Z,31.40
2022-10-11T02:50:13.493Z,31.08
2022-10-11T02:52:40.316Z,30.63
2022-10-11T02:55:08.216Z,30.42
2022-10-11T02:57:35.069Z,30.73
2022-10-11T03:00:01.936Z,31.58
2022-10-11T03:02:28.717Z,30.90
2022-10-11T03:04:55.490Z,33.15
2022-10-11T03:07:22.239Z,30.30
2022-10-11T03:09:49.207Z,32.75
2022-10-11T03:12:16.053Z,31.75
2022-10-11T03:14:42.803Z,30.80
2022-10-11T03:17:34.494Z,32.55
2022-10-11T03:19:56.300Z,32.60
2022-10-11T03:22:23.180Z,32.58
2022-10-11T03:24:49.920Z,31.83
2022-10-11T03:27:16.789Z,32.42
2022-10-11T03:29:43.597Z,31.50
2022-10-11T03:32:10.366Z,31.77
2022-10-11T03:34:37.116Z,32.08
2022-10-11T03:37:04.019Z,34.25
2022-10-11T03:39:30.857Z,31.25
2022-10-11T03:41:57.815Z,29.88
2022-10-11T03:44:24.731Z,30.50
2022-10-11T03:46:51.499Z,32.58
2022-10-11T03:49:18.318Z,32.03
2022-10-11T03:51:45.095Z,32.90
2022-10-11T03:54:11.862Z,31.77
2022-10-11T03:56:38.612Z,31.55
2022-10-11T03:59:05.481Z,31.55
2022-10-11T04:01:37.607Z,32.33
2022-10-11T04:04:05.548Z,31.05
2022-10-11T04:06:32.526Z,31.27
2022-10-11T04:08:59.779Z,31.38
2022-10-11T04:11:27.074Z,29.58
2022-10-11T04:13:54.103Z,29.48
2022-10-11T04:16:20.944Z,31.10
2022-10-11T04:18:47.830Z,32.80
2022-10-11T04:21:14.595Z,32.72
2022-10-11T04:23:41.368Z,30.95
2022-10-11T04:26:08.878Z,33.17
2022-10-11T04:28:35.943Z,33.67
2022-10-11T04:31:05.082Z,31.15
2022-10-11T04:33:32.080Z,32.70
2022-10-11T04:35:58.949Z,30.05
2022-10-11T04:38:26.948Z,33.90
2022-10-11T04:40:53.741Z,33.00
2022-10-11T04:43:20.792Z,32.33
2022-10-11T04:45:47.624Z,29.65
2022-10-11T04:48:14.502Z,28.73
2022-10-11T04:50:41.357Z,28.65
2022-10-11T04:53:08.386Z,28.45
2022-10-11T04:55:35.421Z,29.02
2022-10-11T04:58:02.387Z,29.45
2022-10-11T05:00:29.396Z,28.90
2022-10-11T05:02:56.508Z,27.92
2022-10-11T05:05:23.526Z,28.52
2022-10-11T05:07:50.573Z,28.65
2022-10-11T05:10:17.713Z,28.75
2022-10-11T05:12:44.755Z,28.98
2022-10-11T05:15:11.912Z,29.58
2022-10-11T05:17:38.915Z,29.02
2022-10-11T05:20:06.419Z,29.98
2022-10-11T05:22:33.385Z,29.70
2022-10-11T05:25:00.621Z,30.88
2022-10-11T05:27:27.551Z,32.72
2022-10-11T05:29:54.644Z,33.00
2022-10-11T05:32:21.617Z,32.10
2022-10-11T05:34:48.639Z,31.77
2022-10-11T05:37:15.769Z,30.15
2022-10-11T05:39:42.774Z,30.92
2022-10-11T05:42:10.159Z,29.77
2022-10-11T05:44:37.229Z,29.65
2022-10-11T05:47:04.420Z,29.55
2022-10-11T05:49:31.668Z,29.05
2022-10-11T05:51:58.761Z,27.48
2022-10-11T05:54:28.865Z,28.25
2022-10-11T05:56:55.963Z,27.80
2022-10-11T05:59:23.188Z,28.20
2022-10-11T06:01:50.256Z,28.13
2022-10-11T06:04:19.197Z,27.98
2022-10-11T06:06:46.492Z,28.40
2022-10-11T06:09:13.548Z,28.13
2022-10-11T06:11:41.579Z,27.63
2022-10-11T06:14:09.776Z,29.02
2022-10-11T06:16:36.869Z,27.73
2022-10-11T06:19:04.736Z,26.23
2022-10-11T06:21:31.952Z,28.58
2022-10-11T06:24:01.900Z,26.60
2022-10-11T06:26:29.452Z,27.42
2022-10-11T06:28:56.583Z,27.73
2022-10-11T06:31:23.979Z,26.85
2022-10-11T06:33:51.316Z,27.08
2022-10-11T06:36:19.365Z,28.30
2022-10-11T06:38:46.494Z,26.73
2022-10-11T06:41:17.844Z,26.27
2022-10-11T06:43:45.835Z,29.30
2022-10-11T06:46:13.475Z,27.88
2022-10-11T06:48:43.698Z,25.67
2022-10-11T06:51:11.748Z,25.92
2022-10-11T06:53:38.996Z,25.13
2022-10-11T06:56:09.480Z,24.67
2022-10-11T06:58:37.635Z,26.42
2022-10-11T07:01:08.001Z,26.55
2022-10-11T07:03:35.103Z,24.88
2022-10-11T07:06:09.009Z,25.70
2022-10-11T07:08:37.254Z,23.92
2022-10-11T07:11:07.687Z,27.20
2022-10-11T07:13:34.984Z,25.13
2022-10-11T07:16:03.776Z,23.75
2022-10-11T07:18:31.498Z,23.00
2022-10-11T07:20:59.488Z,22.48
2022-10-11T07:23:26.362Z,19.75
2022-10-11T07:25:54.912Z,17.98
2022-10-11T07:28:22.812Z,17.88
2022-10-11T07:30:50.040Z,18.98
2022-10-11T07:33:17.160Z,15.05
2022-10-11T07:35:48.184Z,17.27
2022-10-11T07:38:16.327Z,17.98
2022-10-11T07:40:45.819Z,20.17
2022-10-11T07:43:14.100Z,18.85
2022-10-11T07:45:42.974Z,18.98
2022-10-11T07:48:09.921Z,18.58
2022-10-11T07:50:37.100Z,17.17
2022-10-11T07:53:04.734Z,17.55
2022-10-11T07:55:40.309Z,16.52
2022-10-11T07:58:11.872Z,15.50
2022-10-11T08:00:40.310Z,16.48
2022-10-11T08:03:07.990Z,15.73
2022-10-11T08:05:36.998Z,16.00
2022-10-11T08:08:04.097Z,16.60
2022-10-11T08:10:36.761Z,16.05
2022-10-11T08:13:04.548Z,16.65
2022-10-11T08:15:31.811Z,18.08
2022-10-11T08:17:59.002Z,17.83
2022-10-11T08:20:26.127Z,16.85
2022-10-11T08:22:53.812Z,15.65
2022-10-11T08:25:20.945Z,15.70
2022-10-11T08:27:47.973Z,15.02
2022-10-11T08:30:15.120Z,13.60
2022-10-11T08:32:42.269Z,14.20
2022-10-11T08:35:09.443Z,12.70
2022-10-11T08:37:36.499Z,14.32
2022-10-11T08:40:04.269Z,14.80
2022-10-11T08:42:35.667Z,18.08
2022-10-11T08:45:19.138Z,14.05
2022-10-11T08:47:47.524Z,14.25
2022-10-11T08:50:21.827Z,13.07
2022-10-11T08:52:51.422Z,13.60
2022-10-11T08:55:44.217Z,12.68
2022-10-11T08:58:25.879Z,12.52
2022-10-11T09:00:56.762Z,11.85
2022-10-11T09:03:41.045Z,11.87
2022-10-11T09:06:30.023Z,11.85
2022-10-11T09:09:16.589Z,11.60
2022-10-11T09:12:13.580Z,11.50
2022-10-11T09:15:24.903Z,11.43
2022-10-11T09:18:05.060Z,11.63
2022-10-11T09:20:46.539Z,13.30
2022-10-11T09:23:22.976Z,12.02
2022-10-11T09:25:58.044Z,13.15
2022-10-11T09:28:48.473Z,12.98
2022-10-11T09:31:17.072Z,12.65
2022-10-11T09:33:49.394Z,12.38
2022-10-11T09:37:01.665Z,11.98
2022-10-11T09:39:44.092Z,12.40
2022-10-11T09:42:12.745Z,12.40
2022-10-11T09:44:46.899Z,13.15
2022-10-11T09:47:25.438Z,12.07
2022-10-11T09:50:04.067Z,11.73
2022-10-11T09:52:34.865Z,11.38
2022-10-11T09:55:03.383Z,10.95
2022-10-11T09:57:33.685Z,11.43
2022-10-11T10:00:28.435Z,12.05
2022-10-11T10:02:58.268Z,10.77
2022-10-11T10:05:31.488Z,10.80
2022-10-11T10:08:05.049Z,11.13
2022-10-11T10:10:40.383Z,10.57
2022-10-11T10:13:35.044Z,9.95
2022-10-11T10:16:05.336Z,10.40
2022-10-11T10:18:55.254Z,10.80
2022-10-11T10:21:45.740Z,10.68
2022-10-11T10:24:35.715Z,10.10
2022-10-11T10:27:13.804Z,9.68
2022-10-11T10:29:42.482Z,9.55
2022-10-11T10:32:19.695Z,10.18
2022-10-11T10:35:00.633Z,10.27
2022-10-11T10:37:35.464Z,9.10
2022-10-11T10:40:15.708Z,10.05
2022-10-11T10:42:45.883Z,9.02
2022-10-11T10:45:27.158Z,8.93
2022-10-11T10:48:18.584Z,8.68
2022-10-11T10:51:12.393Z,9.20
2022-10-11T10:53:53.890Z,8.20
2022-10-11T10:56:48.648Z,8.50
2022-10-11T10:59:39.350Z,7.93
2022-10-11T11:02:40.092Z,9.57
2022-10-11T11:05:21.182Z,8.35
2022-10-11T11:08:08.010Z,7.68
2022-10-11T11:11:13.615Z,7.00
2022-10-11T11:14:28.530Z,8.43
2022-10-11T11:16:58.619Z,7.05
2022-10-11T11:19:58.896Z,7.10
2022-10-11T11:22:36.550Z,6.68
2022-10-11T11:25:21.507Z,6.32
2022-10-11T11:28:03.771Z,6.55
2022-10-11T11:30:53.564Z,6.28
2022-10-11T11:33:49.036Z,6.53
2022-10-11T11:36:40.872Z,6.25
2022-10-11T11:39:19.751Z,6.32
2022-10-11T11:42:22.689Z,6.63
2022-10-11T11:47:34.030Z,6.47
2022-10-11T11:50:15.390Z,6.60
2022-10-11T11:52:47.510Z,5.57
2022-10-11T12:03:55.869Z,6.90
2022-10-11T12:06:33.606Z,6.25
2022-10-11T12:12:07.129Z,6.40
2022-10-11T12:14:36.517Z,6.22
2022-10-11T12:19:31.816Z,6.70
2022-10-11T12:25:18.490Z,7.05
2022-10-11T12:27:57.158Z,6.47
2022-10-11T12:30:56.784Z,6.40
2022-10-11T12:33:32.686Z,6.75
2022-10-11T12:36:25.201Z,6.55
2022-10-11T12:39:20.543Z,7.00
2022-10-11T12:47:42.208Z,6.35
2022-10-11T12:50:20.471Z,6.28
2022-10-11T12:53:24.052Z,6.43
2022-10-11T12:56:00.575Z,7.00
2022-10-11T12:58:38.655Z,6.30
2022-10-11T13:01:15.005Z,6.35
2022-10-11T13:03:50.980Z,6.03
2022-10-11T13:06:27.186Z,6.93
2022-10-11T13:09:02.076Z,6.20
2022-10-11T13:11:36.112Z,6.78
2022-10-11T13:14:25.049Z,7.57
2022-10-11T13:16:58.962Z,6.82
2022-10-11T13:19:29.050Z,6.80
2022-10-11T13:51:36.014Z,9.90
2022-10-11T14:07:39.300Z,8.93
2022-10-11T15:01:30.178Z,9.27
2022-10-11T15:28:13.257Z,8.85
2022-10-11T15:41:15.694Z,8.20
2022-10-11T15:51:52.883Z,7.03
2022-10-11T15:57:02.489Z,8.20
2022-10-11T15:59:30.484Z,8.32
2022-10-11T16:01:58.912Z,9.50
2022-10-11T16:12:33.929Z,7.68
2022-10-11T16:15:01.688Z,8.50
2022-10-11T16:22:54.422Z,9.13
2022-10-11T16:25:22.516Z,7.93
2022-10-11T16:27:50.187Z,8.00
2022-10-11T16:30:18.643Z,8.20
2022-10-11T16:32:46.328Z,8.65
2022-10-11T16:35:15.283Z,9.13
2022-10-11T16:37:42.848Z,9.23
2022-10-11T16:40:16.853Z,8.95
2022-10-11T16:42:45.955Z,8.38
2022-10-11T16:45:14.678Z,9.48
2022-10-11T16:47:44.954Z,9.82
2022-10-11T16:50:13.838Z,9.63
2022-10-11T16:55:16.193Z,9.90
2022-10-11T16:57:43.023Z,8.73
2022-10-11T17:00:10.380Z,8.60
2022-10-11T17:02:37.328Z,9.25
2022-10-11T17:05:04.880Z,8.80
2022-10-11T17:07:32.186Z,9.30
2022-10-11T17:10:01.160Z,14.05
2022-10-11T17:12:28.301Z,14.70
2022-10-11T17:14:55.490Z,13.30
2022-10-11T17:17:22.480Z,12.88
2022-10-11T17:19:49.370Z,12.00
2022-10-11T17:22:19.156Z,13.80
2022-10-11T17:24:46.210Z,12.15
2022-10-11T17:27:13.737Z,12.70
2022-10-11T17:29:41.145Z,12.85
2022-10-11T17:32:08.609Z,12.70
2022-10-11T17:34:36.002Z,14.52
2022-10-11T17:37:03.149Z,14.30
2022-10-11T17:39:30.095Z,15.85
2022-10-11T17:41:57.087Z,15.90
2022-10-11T17:44:24.039Z,16.65
2022-10-11T17:46:51.192Z,15.63
2022-10-11T17:49:18.532Z,17.63
2022-10-11T17:51:45.778Z,18.05
2022-10-11T17:54:12.838Z,18.42
2022-10-11T17:56:41.446Z,18.55
2022-10-11T17:59:14.430Z,19.73
2022-10-11T18:01:41.442Z,18.92
2022-10-11T18:04:16.428Z,19.38
2022-10-11T18:06:45.268Z,19.00
2022-10-11T18:09:13.860Z,21.25
2022-10-11T18:11:41.070Z,20.02
2022-10-11T18:14:08.427Z,20.02
2022-10-11T18:16:55.391Z,19.05
2022-10-11T18:19:22.338Z,20.55
2022-10-11T18:21:49.220Z,20.83
2022-10-11T18:24:16.881Z,21.08
2022-10-11T18:26:45.078Z,21.67
2022-10-11T18:29:12.730Z,20.65
2022-10-11T18:31:39.885Z,21.48
2022-10-11T18:34:11.065Z,20.27
2022-10-11T18:36:39.086Z,20.83
2022-10-11T18:39:08.472Z,21.10
2022-10-11T18:41:37.721Z,20.90
2022-10-11T18:44:07.562Z,20.92
2022-10-11T18:46:34.993Z,21.65
2022-10-11T18:49:02.219Z,21.23
2022-10-11T18:51:32.008Z,20.50
2022-10-11T18:53:59.068Z,20.20
2022-10-11T18:56:27.948Z,20.42
2022-10-11T18:58:56.724Z,20.98
2022-10-11T19:01:26.870Z,20.80
2022-10-11T19:03:59.264Z,22.38
2022-10-11T19:06:30.339Z,21.90
2022-10-11T19:09:09.355Z,19.98
2022-10-11T19:11:37.013Z,19.92
2022-10-11T19:14:11.282Z,20.05
2022-10-11T19:16:41.337Z,22.58
2022-10-11T19:19:09.969Z,21.50
2022-10-11T19:21:37.452Z,21.17
2022-10-11T19:24:04.765Z,19.63
2022-10-11T19:26:34.731Z,21.13
2022-10-11T19:29:04.433Z,21.58
2022-10-11T19:31:33.222Z,21.45
2022-10-11T19:34:00.678Z,23.05
2022-10-11T19:36:31.427Z,23.58
2022-10-11T19:39:00.914Z,23.70
2022-10-11T19:41:28.562Z,24.67
2022-10-11T19:43:58.034Z,23.02
2022-10-11T19:46:50.396Z,23.80
2022-10-11T19:49:14.049Z,23.15
2022-10-11T19:51:40.832Z,24.17
2022-10-11T19:54:12.109Z,25.17
2022-10-11T19:56:39.251Z,22.88
2022-10-11T19:59:09.005Z,24.67
2022-10-11T20:01:36.851Z,23.20
2022-10-11T20:04:06.651Z,23.92
2022-10-11T20:06:38.367Z,23.80
2022-10-11T20:09:28.455Z,22.60
2022-10-11T20:11:56.554Z,23.45
2022-10-11T20:14:23.409Z,22.55
2022-10-11T20:16:50.642Z,23.45
2022-10-11T20:19:17.734Z,23.17
2022-10-11T20:21:45.077Z,22.13
2022-10-11T20:24:12.150Z,22.23
2022-10-11T20:26:39.429Z,23.33
2022-10-11T20:29:06.486Z,22.17
2022-10-11T20:31:38.150Z,22.75
2022-10-11T20:36:36.299Z,20.35
2022-10-11T20:39:05.284Z,20.92
2022-10-11T20:41:37.005Z,20.77
2022-10-11T20:46:33.412Z,21.50
2022-10-11T20:49:03.137Z,20.35
2022-10-11T20:51:31.534Z,22.27
2022-10-11T20:53:59.516Z,20.00
2022-10-11T20:56:30.077Z,20.55
2022-10-11T20:58:58.105Z,20.35
2022-10-11T21:01:31.952Z,22.17
2022-10-11T21:04:00.983Z,21.50
2022-10-11T21:06:29.321Z,21.98
2022-10-11T21:08:57.027Z,22.65
2022-10-11T21:11:31.891Z,22.02
2022-10-11T21:14:00.672Z,22.35
2022-10-11T21:16:27.938Z,20.95
2022-10-11T21:18:56.432Z,21.92
2022-10-11T21:21:24.122Z,22.92
2022-10-11T21:24:00.932Z,22.52
2022-10-11T21:26:28.572Z,21.90
2022-10-11T21:28:55.821Z,22.67
2022-10-11T21:31:24.118Z,23.05
2022-10-11T21:33:51.202Z,24.90
2022-10-11T21:36:20.498Z,25.10
2022-10-11T21:38:48.214Z,24.08
2022-10-11T21:41:26.062Z,24.52
2022-10-11T21:43:53.719Z,23.23
2022-10-11T21:46:54.454Z,22.63
2022-10-11T21:49:19.872Z,22.85
2022-10-11T21:51:46.845Z,21.95
2022-10-11T21:54:14.226Z,22.88
2022-10-11T21:56:41.576Z,22.10
2022-10-11T21:59:11.256Z,23.98
2022-10-11T22:01:40.343Z,23.03
2022-10-11T22:04:07.820Z,25.33
2022-10-11T22:06:35.470Z,24.65
2022-10-11T22:09:04.044Z,23.17
2022-10-11T22:11:31.249Z,21.92
2022-10-11T22:13:58.903Z,23.92
2022-10-11T22:16:25.860Z,22.38
2022-10-11T22:18:55.842Z,23.27
2022-10-11T22:21:24.813Z,24.23
2022-10-11T22:23:53.749Z,22.17
2022-10-11T22:26:26.707Z,20.80
2022-10-11T22:28:53.879Z,20.48
2022-10-11T22:31:21.533Z,21.83
2022-10-11T22:33:48.703Z,21.60
2022-10-11T22:36:19.351Z,22.13
2022-10-11T22:38:46.371Z,22.20
2022-10-11T22:41:13.396Z,21.20
2022-10-11T22:43:40.513Z,23.08
2022-10-11T22:46:08.126Z,22.75
2022-10-11T22:48:35.587Z,22.95
2022-10-11T22:51:02.846Z,22.77
2022-10-11T22:53:30.505Z,23.25
2022-10-11T22:55:57.529Z,23.10
2022-10-11T22:58:24.413Z,21.50
2022-10-11T23:00:51.202Z,21.58
2022-10-11T23:03:18.808Z,21.55
2022-10-11T23:05:57.489Z,22.58
2022-10-11T23:08:24.833Z,24.55
2022-10-11T23:10:52.111Z,21.98
2022-10-11T23:13:19.139Z,23.70
2022-10-11T23:15:45.995Z,22.30
2022-10-11T23:18:13.055Z,22.25
2022-10-11T23:20:40.086Z,23.30
2022-10-11T23:23:07.371Z,22.00
2022-10-11T23:25:34.405Z,21.90
2022-10-11T23:28:02.254Z,22.15
2022-10-11T23:30:30.120Z,21.95
2022-10-11T23:32:57.061Z,21.92
2022-10-11T23:35:24.441Z,23.00
2022-10-11T23:37:53.652Z,21.90
2022-10-11T23:40:20.616Z,22.77
2022-10-11T23:42:47.425Z,21.90
2022-10-11T23:45:14.358Z,22.38
2022-10-11T23:47:41.343Z,21.50
2022-10-11T23:50:08.956Z,21.55
2022-10-11T23:52:35.835Z,19.73
2022-10-11T23:55:02.777Z,20.23
2022-10-11T23:57:29.677Z,21.15
2022-10-11T23:59:56.517Z,22.42
